• Join FlightAware (Why Join?)
  • Login
  • US Flag 
01:01PM EDT


 

Airport Tracker/Info


-or-


 

Live Flight TrackerFlight Track Log ✈ WIG7117 ✈ 12-Jul-2013 ✈ KALB - KSYR

Flight Track Log - Related Links

Times and Time Zones

All times are in EDT time to prevent confusion due to time zone crossing. See the WIG7117 flight status page for this flight to view local times or setup timezone preferences in your user account.

Time Position Orientation Groundspeed Altitude Reporting Facility
EDT Latitude Longitude Course Direction KTS MPH feet Rate Location/Type
09:10PM 42.7569 -73.8058 337° Northwest 70 81 800  Level Boston Center
09:11PM 42.7775 -73.8175 337° Northwest 90 104 2,000 1,140 Climbing Boston Center
09:12PM 42.7961 -73.8492 309° West 96 110 3,100 1,080 Climbing Boston Center
09:13PM 42.8164 -73.8892 305° West 129 148 4,300 1,080 Climbing Boston Center
09:14PM 42.8347 -73.9264 304° West 125 144 5,500 1,200 Climbing Boston Center
09:16PM 42.8508 -73.9694 297° West 122 140 6,800 1,200 Climbing Boston Center
09:17PM 42.8667 -74.0122 297° West 119 137 8,000 540 Climbing Boston Center
09:18PM 42.8808 -74.0608 292° West 157 181 7,900  Descending Boston Center
09:19PM 42.8861 -74.1175 277° West 159 183 8,000  Climbing Boston Center
09:20PM 42.8936 -74.1772 280° West 152 175 8,000  Level Boston Center
09:21PM 42.9011 -74.2342 280° West 154 177 8,000  Level Boston Center
09:22PM 42.9100 -74.3308 277° West 154 177 8,000  Level Boston Center
09:23PM 42.9172 -74.3878 280° West 154 177 8,000  Level Boston Center
09:24PM 42.9244 -74.4475 279° West 156 180 8,000  Level Boston Center
09:25PM 42.9319 -74.4989 281° West 157 181 8,000  Level Boston Center
09:26PM 42.9392 -74.5558 280° West 156 180 8,000  Level Boston Center
09:27PM 42.9464 -74.6156 279° West 159 183 8,000  Level Boston Center
09:28PM 42.9517 -74.6783 277° West 162 186 8,000  Level Boston Center
09:29PM 42.9589 -74.7325 280° West 162 186 8,000  Level Boston Center
09:30PM 42.9658 -74.7981 278° West 163 188 8,000  Level Boston Center
09:31PM 42.9708 -74.8578 277° West 163 188 8,000  Level Boston Center
09:32PM 42.9800 -74.9178 282° West 165 190 8,000  Level Boston Center
09:33PM 42.9869 -74.9806 279° West 165 190 8,000  Level Boston Center
09:34PM 42.9961 -75.0347 283° West 165 190 8,000  Level Boston Center
09:35PM 43.0028 -75.1003 278° West 162 186 8,000  Level Boston Center
09:36PM 43.0078 -75.1603 277° West 161 185 8,000  Level Boston Center
09:37PM 43.0186 -75.2261 283° West 162 186 8,000  Level Boston Center
09:38PM 43.0233 -75.2889 276° West 162 186 8,000  Level Boston Center
09:39PM 43.0322 -75.3489 281° West 162 186 8,000  Level Boston Center
09:40PM 43.0369 -75.4117 276° West 162 186 8,000  Level Boston Center
09:41PM 43.0439 -75.4603 281° West 161 185 8,000 -420 Level Boston Center
09:42PM 43.0506 -75.5289 278° West 162 186 7,300 -840 Descending Boston Center
09:43PM 43.0569 -75.6003 277° West 186 214 6,400 -900 Descending Boston Center
09:44PM 43.0653 -75.6689 279° West 191 220 5,500 -900 Descending Boston Center
09:45PM 43.0717 -75.7403 277° West 193 222 4,700 -780 Descending Boston Center
09:46PM 43.0819 -75.8119 281° West 191 220 4,000 -600 Descending Boston Center
09:47PM 43.0883 -75.8775 278° West 176 203 3,500 -780 Descending Boston Center
09:48PM 43.1053 -75.9439 289° West 186 214 2,500 -960 Descending Boston Center
09:49PM 43.1114 -76.0125 277° West 167 192 1,600 -900 Descending Boston Center
09:50PM 43.1094 -76.0750 268° West 160 184 800 -840 Descending Boston Center
09:52PM 43.1000 -76.1000 270° West  Level FlightAware Approximate
09:59PM 43.1112 -76.1063 270° West  Level Estimated
10:00PM 43.1112 -76.1063 270° West  Level Estimated
10:01PM 43.1112 -76.1063 270° West  Level Estimated
10:02PM 43.1112 -76.1063 270° West  Level Estimated
10:03PM 43.1112 -76.1063 270° West  Level Estimated
10:04PM 43.1112 -76.1063 270° West  Level Estimated
10:05PM 43.1112 -76.1063 270° West  Level Estimated
10:06PM 43.1112 -76.1063 270° West  Level Estimated